Dairyland, Wisconsin
Current Conditions -  °F | °C
As of 11:15 PM on Friday 24 Oct 2014 (Local Time) from KRZN Reporting Station
Clear Clear  
Wind Chill: 56°   Ceiling: Unl
Heat Index: 56°   Visibility: 10mi
Dew Point: 50°   Wind: 8mph
Humidity: 79%   Direction: 250°WSW
Pressure: 29.83"   Gusts: NA
Location:  46.1107°N, 92.219°W
Report Text: KRZN 250415Z AUTO 25007KT 10SM CLR 14/10 A2983 RMK AO2 T01350100
Loading
Personal Weather Stations






























Interactive Weather Map
Tropical Storm Tracking
New forecast layout! Learn more

10-Day Weather Forecast

Advertisements
Track Severe Weather on mobile